sensor_id;sensor_type;location;lat;lon;timestamp;pressure;altitude;pressure_sealevel;temperature;humidity
28701;BME280;15877;52.344;16.790;2023-02-12T00:00:54;102145.08;;;7.88;86.07
28701;BME280;15877;52.344;16.790;2023-02-12T00:03:46;102149.21;;;7.89;85.99
28701;BME280;15877;52.344;16.790;2023-02-12T00:06:21;102149.50;;;7.88;85.83
28701;BME280;15877;52.344;16.790;2023-02-12T00:08:56;102157.08;;;7.93;85.37
28701;BME280;15877;52.344;16.790;2023-02-12T00:11:37;102154.58;;;7.98;84.87
28701;BME280;15877;52.344;16.790;2023-02-12T00:14:10;102154.64;;;7.97;84.71
28701;BME280;15877;52.344;16.790;2023-02-12T00:16:43;102158.70;;;7.94;84.71
28701;BME280;15877;52.344;16.790;2023-02-12T00:19:16;102162.64;;;7.95;84.29
28701;BME280;15877;52.344;16.790;2023-02-12T00:21:49;102163.04;;;7.93;84.14
28701;BME280;15877;52.344;16.790;2023-02-12T00:24:21;102165.52;;;7.92;83.66
28701;BME280;15877;52.344;16.790;2023-02-12T00:26:54;102172.36;;;7.94;83.53
28701;BME280;15877;52.344;16.790;2023-02-12T00:29:27;102184.42;;;7.94;83.59
28701;BME280;15877;52.344;16.790;2023-02-12T00:32:00;102191.09;;;7.96;83.42
28701;BME280;15877;52.344;16.790;2023-02-12T00:34:33;102188.29;;;7.98;83.27
28701;BME280;15877;52.344;16.790;2023-02-12T00:37:05;102200.64;;;7.98;83.15
28701;BME280;15877;52.344;16.790;2023-02-12T00:39:38;102203.06;;;7.95;83.31
28701;BME280;15877;52.344;16.790;2023-02-12T00:42:11;102203.82;;;7.96;83.43
28701;BME280;15877;52.344;16.790;2023-02-12T00:44:44;102207.34;;;7.95;83.44
28701;BME280;15877;52.344;16.790;2023-02-12T00:47:17;102212.05;;;7.97;83.24
28701;BME280;15877;52.344;16.790;2023-02-12T00:49:50;102209.50;;;7.97;83.06
28701;BME280;15877;52.344;16.790;2023-02-12T00:52:23;102215.59;;;8.04;82.65
28701;BME280;15877;52.344;16.790;2023-02-12T00:54:58;102223.23;;;8.04;82.50
28701;BME280;15877;52.344;16.790;2023-02-12T00:57:30;102230.11;;;7.99;82.69
28701;BME280;15877;52.344;16.790;2023-02-12T01:00:04;102227.05;;;8.01;82.93
28701;BME280;15877;52.344;16.790;2023-02-12T01:02:38;102230.18;;;8.04;82.81
28701;BME280;15877;52.344;16.790;2023-02-12T01:05:11;102233.41;;;8.04;82.84
28701;BME280;15877;52.344;16.790;2023-02-12T01:07:47;102236.31;;;8.02;82.88
28701;BME280;15877;52.344;16.790;2023-02-12T01:10:21;102241.33;;;8.04;82.72
28701;BME280;15877;52.344;16.790;2023-02-12T01:12:54;102250.05;;;8.05;82.62
28701;BME280;15877;52.344;16.790;2023-02-12T01:15:26;102253.64;;;8.09;82.23
28701;BME280;15877;52.344;16.790;2023-02-12T01:18:01;102254.77;;;8.12;81.89
28701;BME280;15877;52.344;16.790;2023-02-12T01:20:33;102255.48;;;8.13;81.86
28701;BME280;15877;52.344;16.790;2023-02-12T01:23:06;102259.49;;;8.13;81.86
28701;BME280;15877;52.344;16.790;2023-02-12T01:25:39;102264.34;;;8.14;81.67
28701;BME280;15877;52.344;16.790;2023-02-12T01:28:12;102262.11;;;8.15;81.54
28701;BME280;15877;52.344;16.790;2023-02-12T01:30:47;102271.42;;;8.18;81.54
28701;BME280;15877;52.344;16.790;2023-02-12T01:33:20;102284.54;;;8.15;81.47
28701;BME280;15877;52.344;16.790;2023-02-12T01:35:52;102283.34;;;8.17;81.45
28701;BME280;15877;52.344;16.790;2023-02-12T01:38:25;102272.32;;;8.04;81.54
28701;BME280;15877;52.344;16.790;2023-02-12T01:41:04;102293.21;;;8.13;81.35
28701;BME280;15877;52.344;16.790;2023-02-12T01:43:38;102293.56;;;8.11;81.17
28701;BME280;15877;52.344;16.790;2023-02-12T01:46:13;102291.08;;;8.12;81.35
28701;BME280;15877;52.344;16.790;2023-02-12T01:48:47;102288.15;;;8.08;81.73
28701;BME280;15877;52.344;16.790;2023-02-12T01:51:20;102285.09;;;8.09;82.12
28701;BME280;15877;52.344;16.790;2023-02-12T01:53:56;102290.23;;;8.10;82.52
28701;BME280;15877;52.344;16.790;2023-02-12T01:56:32;102294.84;;;8.11;82.15
28701;BME280;15877;52.344;16.790;2023-02-12T01:59:05;102291.98;;;8.15;82.06
28701;BME280;15877;52.344;16.790;2023-02-12T02:01:37;102289.36;;;8.08;82.17
28701;BME280;15877;52.344;16.790;2023-02-12T02:04:14;102296.27;;;8.09;82.12
28701;BME280;15877;52.344;16.790;2023-02-12T02:06:51;102294.92;;;8.13;82.13
28701;BME280;15877;52.344;16.790;2023-02-12T02:09:26;102293.20;;;8.11;82.21
28701;BME280;15877;52.344;16.790;2023-02-12T02:12:00;102298.40;;;8.10;82.17
28701;BME280;15877;52.344;16.790;2023-02-12T02:14:51;102301.16;;;8.11;81.72
28701;BME280;15877;52.344;16.790;2023-02-12T02:17:40;102299.48;;;8.19;81.57
28701;BME280;15877;52.344;16.790;2023-02-12T02:23:44;102298.73;;;8.14;81.24
28701;BME280;15877;52.344;16.790;2023-02-12T02:32:43;102310.52;;;8.11;81.00
28701;BME280;15877;52.344;16.790;2023-02-12T02:35:25;102314.79;;;8.14;80.96
28701;BME280;15877;52.344;16.790;2023-02-12T02:38:10;102319.21;;;8.14;80.99
28701;BME280;15877;52.344;16.790;2023-02-12T02:40:52;102319.40;;;8.16;80.85
28701;BME280;15877;52.344;16.790;2023-02-12T02:43:30;102318.25;;;8.15;80.91
28701;BME280;15877;52.344;16.790;2023-02-12T02:46:08;102324.72;;;8.13;80.97
28701;BME280;15877;52.344;16.790;2023-02-12T02:48:45;102326.23;;;8.15;80.90
28701;BME280;15877;52.344;16.790;2023-02-12T02:51:22;102330.20;;;8.15;80.66
28701;BME280;15877;52.344;16.790;2023-02-12T02:54:00;102336.79;;;8.17;80.53
28701;BME280;15877;52.344;16.790;2023-02-12T02:56:35;102341.04;;;8.18;80.50
28701;BME280;15877;52.344;16.790;2023-02-12T02:59:12;102341.75;;;8.15;80.41
28701;BME280;15877;52.344;16.790;2023-02-12T03:01:49;102341.94;;;8.16;80.34
28701;BME280;15877;52.344;16.790;2023-02-12T03:04:26;102324.07;;;8.06;80.39
28701;BME280;15877;52.344;16.790;2023-02-12T03:07:05;102348.84;;;8.17;80.50
28701;BME280;15877;52.344;16.790;2023-02-12T03:09:42;102344.63;;;8.18;80.46
28701;BME280;15877;52.344;16.790;2023-02-12T03:12:21;102346.26;;;8.16;80.21
28701;BME280;15877;52.344;16.790;2023-02-12T03:14:56;102347.36;;;8.16;80.14
28701;BME280;15877;52.344;16.790;2023-02-12T03:17:34;102348.56;;;8.17;80.18
28701;BME280;15877;52.344;16.790;2023-02-12T03:20:13;102349.38;;;8.15;80.16
28701;BME280;15877;52.344;16.790;2023-02-12T03:22:50;102357.76;;;8.17;80.22
28701;BME280;15877;52.344;16.790;2023-02-12T03:25:27;102362.80;;;8.17;80.19
28701;BME280;15877;52.344;16.790;2023-02-12T03:28:05;102352.48;;;8.13;80.21
28701;BME280;15877;52.344;16.790;2023-02-12T03:30:43;102372.26;;;8.22;80.42
28701;BME280;15877;52.344;16.790;2023-02-12T03:33:21;102375.55;;;8.19;80.51
28701;BME280;15877;52.344;16.790;2023-02-12T03:36:05;102379.74;;;8.14;80.71
28701;BME280;15877;52.344;16.790;2023-02-12T03:38:42;102381.84;;;8.15;80.59
28701;BME280;15877;52.344;16.790;2023-02-12T03:41:20;102386.05;;;8.14;80.62
28701;BME280;15877;52.344;16.790;2023-02-12T03:44:02;102390.79;;;8.15;80.45
28701;BME280;15877;52.344;16.790;2023-02-12T03:46:41;102399.51;;;8.14;80.21
28701;BME280;15877;52.344;16.790;2023-02-12T03:49:21;102399.39;;;8.15;79.98
28701;BME280;15877;52.344;16.790;2023-02-12T03:51:56;102405.08;;;8.16;79.88
28701;BME280;15877;52.344;16.790;2023-02-12T03:54:29;102406.27;;;8.16;79.70
28701;BME280;15877;52.344;16.790;2023-02-12T03:57:06;102409.82;;;8.17;79.61
28701;BME280;15877;52.344;16.790;2023-02-12T03:59:41;102411.62;;;8.15;79.36
28701;BME280;15877;52.344;16.790;2023-02-12T04:02:15;102416.44;;;8.15;79.20
28701;BME280;15877;52.344;16.790;2023-02-12T04:04:50;102415.65;;;8.15;79.00
28701;BME280;15877;52.344;16.790;2023-02-12T04:07:25;102416.02;;;8.13;78.94
28701;BME280;15877;52.344;16.790;2023-02-12T04:09:58;102418.95;;;8.14;78.78
28701;BME280;15877;52.344;16.790;2023-02-12T04:12:40;102416.06;;;8.17;78.55
28701;BME280;15877;52.344;16.790;2023-02-12T04:15:31;102422.30;;;8.12;78.47
28701;BME280;15877;52.344;16.790;2023-02-12T04:18:13;102425.61;;;8.12;78.51
28701;BME280;15877;52.344;16.790;2023-02-12T04:20:55;102427.46;;;8.11;78.40
28701;BME280;15877;52.344;16.790;2023-02-12T04:23:46;102429.72;;;8.12;78.26
28701;BME280;15877;52.344;16.790;2023-02-12T04:26:25;102414.35;;;8.00;78.22
28701;BME280;15877;52.344;16.790;2023-02-12T04:29:13;102435.96;;;8.09;78.44
28701;BME280;15877;52.344;16.790;2023-02-12T04:31:51;102430.91;;;8.10;78.36
28701;BME280;15877;52.344;16.790;2023-02-12T04:34:30;102434.67;;;8.10;78.41
28701;BME280;15877;52.344;16.790;2023-02-12T04:37:09;102443.00;;;8.09;78.41
28701;BME280;15877;52.344;16.790;2023-02-12T04:39:48;102436.29;;;8.05;78.45
28701;BME280;15877;52.344;16.790;2023-02-12T04:42:22;102430.59;;;8.05;78.66
28701;BME280;15877;52.344;16.790;2023-02-12T04:44:54;102432.54;;;8.05;78.70
28701;BME280;15877;52.344;16.790;2023-02-12T04:47:28;102422.97;;;8.01;78.61
28701;BME280;15877;52.344;16.790;2023-02-12T04:50:01;102440.16;;;8.10;78.82
28701;BME280;15877;52.344;16.790;2023-02-12T04:52:33;102446.68;;;8.11;78.87
28701;BME280;15877;52.344;16.790;2023-02-12T04:55:07;102446.15;;;8.13;78.72
28701;BME280;15877;52.344;16.790;2023-02-12T04:57:39;102445.45;;;8.11;78.68
28701;BME280;15877;52.344;16.790;2023-02-12T05:00:15;102433.41;;;8.01;78.71
28701;BME280;15877;52.344;16.790;2023-02-12T05:02:48;102444.98;;;8.09;78.47
28701;BME280;15877;52.344;16.790;2023-02-12T05:05:20;102452.36;;;8.12;78.37
28701;BME280;15877;52.344;16.790;2023-02-12T05:07:53;102456.00;;;8.09;78.24
28701;BME280;15877;52.344;16.790;2023-02-12T05:10:26;102464.65;;;8.12;78.25
28701;BME280;15877;52.344;16.790;2023-02-12T05:12:59;102467.47;;;8.12;78.26
28701;BME280;15877;52.344;16.790;2023-02-12T05:15:31;102469.20;;;8.12;78.11
28701;BME280;15877;52.344;16.790;2023-02-12T05:18:04;102475.35;;;8.11;78.12
28701;BME280;15877;52.344;16.790;2023-02-12T05:20:37;102481.41;;;8.11;77.98
28701;BME280;15877;52.344;16.790;2023-02-12T05:23:10;102477.23;;;8.11;78.15
28701;BME280;15877;52.344;16.790;2023-02-12T05:25:47;102478.96;;;8.11;78.02
28701;BME280;15877;52.344;16.790;2023-02-12T05:28:19;102483.50;;;8.10;77.87
28701;BME280;15877;52.344;16.790;2023-02-12T05:30:52;102490.78;;;8.09;77.70
28701;BME280;15877;52.344;16.790;2023-02-12T05:33:25;102496.41;;;8.07;77.77
28701;BME280;15877;52.344;16.790;2023-02-12T05:36:03;102498.92;;;8.05;77.85
28701;BME280;15877;52.344;16.790;2023-02-12T05:38:37;102501.36;;;8.05;78.11
28701;BME280;15877;52.344;16.790;2023-02-12T05:41:13;102493.64;;;7.94;77.94
28701;BME280;15877;52.344;16.790;2023-02-12T05:43:49;102515.66;;;8.04;77.87
28701;BME280;15877;52.344;16.790;2023-02-12T05:46:22;102521.20;;;8.03;77.54
28701;BME280;15877;52.344;16.790;2023-02-12T05:48:57;102519.44;;;8.02;77.53
28701;BME280;15877;52.344;16.790;2023-02-12T05:51:30;102519.25;;;7.95;77.54
28701;BME280;15877;52.344;16.790;2023-02-12T05:54:05;102526.42;;;7.94;77.75
28701;BME280;15877;52.344;16.790;2023-02-12T05:56:42;102530.11;;;7.95;77.67
28701;BME280;15877;52.344;16.790;2023-02-12T05:59:19;102543.16;;;7.96;77.69
28701;BME280;15877;52.344;16.790;2023-02-12T06:01:53;102548.14;;;7.96;77.71
28701;BME280;15877;52.344;16.790;2023-02-12T06:04:26;102552.84;;;7.97;77.77
28701;BME280;15877;52.344;16.790;2023-02-12T06:07:00;102554.42;;;7.95;77.71
28701;BME280;15877;52.344;16.790;2023-02-12T06:09:33;102557.56;;;7.90;77.93
28701;BME280;15877;52.344;16.790;2023-02-12T06:12:06;102558.77;;;7.88;77.81
28701;BME280;15877;52.344;16.790;2023-02-12T06:14:41;102563.45;;;7.90;77.61
28701;BME280;15877;52.344;16.790;2023-02-12T06:17:16;102561.98;;;7.87;77.73
28701;BME280;15877;52.344;16.790;2023-02-12T06:19:49;102564.41;;;7.87;77.75
28701;BME280;15877;52.344;16.790;2023-02-12T06:22:21;102566.80;;;7.86;77.64
28701;BME280;15877;52.344;16.790;2023-02-12T06:24:54;102573.45;;;7.86;77.94
28701;BME280;15877;52.344;16.790;2023-02-12T06:27:26;102578.43;;;7.86;78.00
28701;BME280;15877;52.344;16.790;2023-02-12T06:29:59;102584.95;;;7.87;77.98
28701;BME280;15877;52.344;16.790;2023-02-12T06:32:32;102581.23;;;7.88;77.98
28701;BME280;15877;52.344;16.790;2023-02-12T06:35:05;102594.02;;;7.88;78.05
28701;BME280;15877;52.344;16.790;2023-02-12T06:37:39;102599.11;;;7.87;77.86
28701;BME280;15877;52.344;16.790;2023-02-12T06:40:12;102595.06;;;7.88;77.80
28701;BME280;15877;52.344;16.790;2023-02-12T06:42:45;102599.88;;;7.88;78.02
28701;BME280;15877;52.344;16.790;2023-02-12T06:45:20;102605.17;;;7.85;78.06
28701;BME280;15877;52.344;16.790;2023-02-12T06:47:53;102608.15;;;7.86;78.16
28701;BME280;15877;52.344;16.790;2023-02-12T06:50:26;102610.55;;;7.84;78.23
28701;BME280;15877;52.344;16.790;2023-02-12T06:53:00;102619.52;;;7.85;78.07
28701;BME280;15877;52.344;16.790;2023-02-12T06:55:34;102621.05;;;7.86;77.99
28701;BME280;15877;52.344;16.790;2023-02-12T06:58:07;102623.55;;;7.85;77.99
28701;BME280;15877;52.344;16.790;2023-02-12T07:00:40;102631.89;;;7.87;77.93
28701;BME280;15877;52.344;16.790;2023-02-12T07:03:12;102635.27;;;7.85;77.99
28701;BME280;15877;52.344;16.790;2023-02-12T07:05:45;102632.31;;;7.84;78.08
28701;BME280;15877;52.344;16.790;2023-02-12T07:08:18;102630.27;;;7.83;78.19
28701;BME280;15877;52.344;16.790;2023-02-12T07:10:51;102615.64;;;7.73;78.15
28701;BME280;15877;52.344;16.790;2023-02-12T07:13:24;102630.38;;;7.83;78.18
28701;BME280;15877;52.344;16.790;2023-02-12T07:15:56;102615.33;;;7.72;78.17
28701;BME280;15877;52.344;16.790;2023-02-12T07:18:29;102637.16;;;7.85;78.32
28701;BME280;15877;52.344;16.790;2023-02-12T07:21:03;102637.97;;;7.88;78.44
28701;BME280;15877;52.344;16.790;2023-02-12T07:23:36;102638.21;;;7.85;78.82
28701;BME280;15877;52.344;16.790;2023-02-12T07:26:11;102640.45;;;7.84;78.89
28701;BME280;15877;52.344;16.790;2023-02-12T07:28:44;102638.65;;;7.86;79.01
28701;BME280;15877;52.344;16.790;2023-02-12T07:31:19;102637.10;;;7.88;78.98
28701;BME280;15877;52.344;16.790;2023-02-12T07:33:55;102638.35;;;7.88;78.75
28701;BME280;15877;52.344;16.790;2023-02-12T07:36:30;102643.50;;;7.89;78.56
28701;BME280;15877;52.344;16.790;2023-02-12T07:39:03;102643.44;;;7.89;78.50
28701;BME280;15877;52.344;16.790;2023-02-12T07:41:36;102645.11;;;7.89;78.94
28701;BME280;15877;52.344;16.790;2023-02-12T07:44:11;102650.07;;;7.91;79.21
28701;BME280;15877;52.344;16.790;2023-02-12T07:46:46;102652.53;;;7.93;79.35
28701;BME280;15877;52.344;16.790;2023-02-12T07:49:20;102660.21;;;7.95;79.17
28701;BME280;15877;52.344;16.790;2023-02-12T07:51:53;102662.79;;;7.97;79.29
28701;BME280;15877;52.344;16.790;2023-02-12T07:54:28;102666.76;;;7.98;79.28
28701;BME280;15877;52.344;16.790;2023-02-12T07:57:01;102672.04;;;7.98;79.18
28701;BME280;15877;52.344;16.790;2023-02-12T07:59:33;102665.79;;;7.96;79.09
28701;BME280;15877;52.344;16.790;2023-02-12T08:02:08;102673.66;;;8.01;78.71
28701;BME280;15877;52.344;16.790;2023-02-12T08:04:40;102677.29;;;8.03;78.42
28701;BME280;15877;52.344;16.790;2023-02-12T08:07:13;102674.27;;;8.01;78.23
28701;BME280;15877;52.344;16.790;2023-02-12T08:09:46;102674.13;;;7.98;77.94
28701;BME280;15877;52.344;16.790;2023-02-12T08:12:19;102656.25;;;7.87;78.03
28701;BME280;15877;52.344;16.790;2023-02-12T08:14:53;102676.33;;;7.98;78.01
28701;BME280;15877;52.344;16.790;2023-02-12T08:17:26;102672.41;;;7.96;77.94
28701;BME280;15877;52.344;16.790;2023-02-12T08:19:58;102671.16;;;8.01;78.15
28701;BME280;15877;52.344;16.790;2023-02-12T08:22:31;102676.61;;;8.04;78.12
28701;BME280;15877;52.344;16.790;2023-02-12T08:25:04;102681.79;;;8.05;77.78
28701;BME280;15877;52.344;16.790;2023-02-12T08:27:37;102677.88;;;8.03;77.62
28701;BME280;15877;52.344;16.790;2023-02-12T08:30:12;102688.74;;;8.08;77.48
28701;BME280;15877;52.344;16.790;2023-02-12T08:32:45;102686.30;;;8.10;77.60
28701;BME280;15877;52.344;16.790;2023-02-12T08:35:19;102675.95;;;8.03;77.54
28701;BME280;15877;52.344;16.790;2023-02-12T08:37:52;102669.11;;;8.00;77.65
28701;BME280;15877;52.344;16.790;2023-02-12T08:40:25;102668.64;;;8.04;77.72
28701;BME280;15877;52.344;16.790;2023-02-12T08:42:57;102683.53;;;8.14;77.64
28701;BME280;15877;52.344;16.790;2023-02-12T08:45:31;102682.23;;;8.13;77.83
28701;BME280;15877;52.344;16.790;2023-02-12T08:48:04;102681.30;;;8.15;77.89
28701;BME280;15877;52.344;16.790;2023-02-12T08:50:37;102684.02;;;8.16;77.68
28701;BME280;15877;52.344;16.790;2023-02-12T08:53:10;102691.66;;;8.21;77.84
28701;BME280;15877;52.344;16.790;2023-02-12T08:55:48;102697.96;;;8.24;78.00
28701;BME280;15877;52.344;16.790;2023-02-12T08:58:21;102701.05;;;8.25;78.04
28701;BME280;15877;52.344;16.790;2023-02-12T09:00:54;102698.38;;;8.27;77.84
28701;BME280;15877;52.344;16.790;2023-02-12T09:03:27;102678.13;;;8.19;77.82
28701;BME280;15877;52.344;16.790;2023-02-12T09:06:02;102694.22;;;8.32;77.58
28701;BME280;15877;52.344;16.790;2023-02-12T09:08:36;102681.27;;;8.21;77.67
28701;BME280;15877;52.344;16.790;2023-02-12T09:11:11;102700.75;;;8.27;78.18
28701;BME280;15877;52.344;16.790;2023-02-12T09:13:44;102704.48;;;8.24;78.30
28701;BME280;15877;52.344;16.790;2023-02-12T09:16:18;102709.64;;;8.25;78.47
28701;BME280;15877;52.344;16.790;2023-02-12T09:18:51;102714.39;;;8.27;78.60
28701;BME280;15877;52.344;16.790;2023-02-12T09:21:24;102716.14;;;8.23;78.82
28701;BME280;15877;52.344;16.790;2023-02-12T09:23:57;102720.42;;;8.18;78.99
28701;BME280;15877;52.344;16.790;2023-02-12T09:26:30;102710.40;;;8.14;78.67
28701;BME280;15877;52.344;16.790;2023-02-12T09:29:04;102722.75;;;8.26;78.64
28701;BME280;15877;52.344;16.790;2023-02-12T09:31:37;102711.23;;;8.21;78.60
28701;BME280;15877;52.344;16.790;2023-02-12T09:34:10;102734.60;;;8.32;79.01
28701;BME280;15877;52.344;16.790;2023-02-12T09:36:43;102736.59;;;8.32;79.05
28701;BME280;15877;52.344;16.790;2023-02-12T09:39:15;102734.58;;;8.39;78.99
28701;BME280;15877;52.344;16.790;2023-02-12T09:42:19;102734.16;;;8.40;79.01
28701;BME280;15877;52.344;16.790;2023-02-12T09:45:02;102736.92;;;8.43;78.80
28701;BME280;15877;52.344;16.790;2023-02-12T09:47:43;102734.20;;;8.44;78.68
28701;BME280;15877;52.344;16.790;2023-02-12T09:50:32;102732.84;;;8.46;78.85
28701;BME280;15877;52.344;16.790;2023-02-12T09:53:12;102732.54;;;8.48;78.74
28701;BME280;15877;52.344;16.790;2023-02-12T09:55:46;102728.33;;;8.49;78.93
28701;BME280;15877;52.344;16.790;2023-02-12T09:58:30;102720.95;;;8.44;79.41
28701;BME280;15877;52.344;16.790;2023-02-12T10:01:11;102720.92;;;8.46;79.89
28701;BME280;15877;52.344;16.790;2023-02-12T10:03:46;102726.39;;;8.52;79.72
28701;BME280;15877;52.344;16.790;2023-02-12T10:06:21;102725.78;;;8.52;80.06
28701;BME280;15877;52.344;16.790;2023-02-12T10:09:29;102729.89;;;8.57;80.02
28701;BME280;15877;52.344;16.790;2023-02-12T10:12:11;102729.14;;;8.64;79.74
28701;BME280;15877;52.344;16.790;2023-02-12T10:15:11;102726.00;;;8.63;80.08
28701;BME280;15877;52.344;16.790;2023-02-12T10:17:50;102722.23;;;8.67;79.94
28701;BME280;15877;52.344;16.790;2023-02-12T10:20:41;102718.02;;;8.70;79.92
28701;BME280;15877;52.344;16.790;2023-02-12T10:23:32;102717.12;;;8.72;79.90
28701;BME280;15877;52.344;16.790;2023-02-12T10:26:15;102716.44;;;8.73;80.12
28701;BME280;15877;52.344;16.790;2023-02-12T10:28:51;102721.50;;;8.73;80.55
28701;BME280;15877;52.344;16.790;2023-02-12T10:31:29;102718.62;;;8.72;80.86
28701;BME280;15877;52.344;16.790;2023-02-12T10:34:11;102724.74;;;8.70;81.06
28701;BME280;15877;52.344;16.790;2023-02-12T10:36:47;102724.29;;;8.56;81.53
28701;BME280;15877;52.344;16.790;2023-02-12T10:41:44;102729.38;;;8.72;81.26
28701;BME280;15877;52.344;16.790;2023-02-12T10:44:19;102723.20;;;8.80;80.64
28701;BME280;15877;52.344;16.790;2023-02-12T10:46:52;102721.88;;;8.85;80.38
28701;BME280;15877;52.344;16.790;2023-02-12T10:49:25;102727.64;;;8.74;80.96
28701;BME280;15877;52.344;16.790;2023-02-12T10:52:04;102712.50;;;8.55;81.55
28701;BME280;15877;52.344;16.790;2023-02-12T10:54:43;102725.50;;;8.67;81.73
28701;BME280;15877;52.344;16.790;2023-02-12T10:57:19;102723.02;;;8.73;81.42
28701;BME280;15877;52.344;16.790;2023-02-12T10:59:54;102719.33;;;8.78;80.96
28701;BME280;15877;52.344;16.790;2023-02-12T11:02:29;102717.86;;;8.80;80.62
28701;BME280;15877;52.344;16.790;2023-02-12T11:05:23;102705.05;;;8.43;81.46
28701;BME280;15877;52.344;16.790;2023-02-12T11:07:56;102723.19;;;8.51;81.69
28701;BME280;15877;52.344;16.790;2023-02-12T11:10:32;102731.55;;;8.52;81.43
28701;BME280;15877;52.344;16.790;2023-02-12T11:13:23;102726.55;;;8.66;80.67
28701;BME280;15877;52.344;16.790;2023-02-12T11:15:57;102728.02;;;8.65;80.64
28701;BME280;15877;52.344;16.790;2023-02-12T11:18:30;102734.48;;;8.62;80.44
28701;BME280;15877;52.344;16.790;2023-02-12T11:21:05;102727.14;;;8.54;80.79
28701;BME280;15877;52.344;16.790;2023-02-12T11:23:40;102731.45;;;8.56;80.86
28701;BME280;15877;52.344;16.790;2023-02-12T11:26:26;102730.33;;;8.57;80.68
28701;BME280;15877;52.344;16.790;2023-02-12T11:29:01;102729.11;;;8.56;80.65
28701;BME280;15877;52.344;16.790;2023-02-12T11:31:35;102724.20;;;8.56;80.00
28701;BME280;15877;52.344;16.790;2023-02-12T11:34:16;102724.98;;;8.55;80.20
28701;BME280;15877;52.344;16.790;2023-02-12T11:36:51;102704.98;;;8.49;79.67
28701;BME280;15877;52.344;16.790;2023-02-12T11:39:27;102718.08;;;8.52;79.09
28701;BME280;15877;52.344;16.790;2023-02-12T11:42:04;102717.56;;;8.48;79.11
28701;BME280;15877;52.344;16.790;2023-02-12T11:44:49;102718.80;;;8.47;79.08
28701;BME280;15877;52.344;16.790;2023-02-12T11:47:25;102713.28;;;8.56;78.93
28701;BME280;15877;52.344;16.790;2023-02-12T11:50:02;102713.41;;;8.53;79.03
28701;BME280;15877;52.344;16.790;2023-02-12T11:52:36;102710.77;;;8.57;78.86
28701;BME280;15877;52.344;16.790;2023-02-12T11:55:21;102712.04;;;8.53;78.93
28701;BME280;15877;52.344;16.790;2023-02-12T11:58:02;102714.75;;;8.53;79.06
28701;BME280;15877;52.344;16.790;2023-02-12T12:00:41;102716.95;;;8.41;79.23
28701;BME280;15877;52.344;16.790;2023-02-12T12:03:20;102712.33;;;8.42;79.51
28701;BME280;15877;52.344;16.790;2023-02-12T12:05:58;102709.80;;;8.45;79.67
28701;BME280;15877;52.344;16.790;2023-02-12T12:08:37;102701.05;;;8.48;79.37
28701;BME280;15877;52.344;16.790;2023-02-12T12:11:15;102698.52;;;8.53;79.20
28701;BME280;15877;52.344;16.790;2023-02-12T12:13:52;102694.06;;;8.59;79.16
28701;BME280;15877;52.344;16.790;2023-02-12T12:16:33;102697.17;;;8.63;79.05
28701;BME280;15877;52.344;16.790;2023-02-12T12:19:30;102700.77;;;8.68;79.27
28701;BME280;15877;52.344;16.790;2023-02-12T12:22:22;102704.90;;;8.70;79.25
28701;BME280;15877;52.344;16.790;2023-02-12T12:25:04;102705.05;;;8.71;79.38
28701;BME280;15877;52.344;16.790;2023-02-12T12:27:44;102703.48;;;8.77;79.17
28701;BME280;15877;52.344;16.790;2023-02-12T12:30:50;102699.29;;;8.76;79.04
28701;BME280;15877;52.344;16.790;2023-02-12T12:33:32;102694.90;;;8.76;78.95
28701;BME280;15877;52.344;16.790;2023-02-12T12:36:29;102662.50;;;8.61;79.26
28701;BME280;15877;52.344;16.790;2023-02-12T12:39:11;102686.52;;;8.80;79.01
28701;BME280;15877;52.344;16.790;2023-02-12T12:41:59;102680.60;;;8.83;79.20
28701;BME280;15877;52.344;16.790;2023-02-12T12:44:44;102677.04;;;8.81;79.69
28701;BME280;15877;52.344;16.790;2023-02-12T12:47:27;102670.55;;;8.81;80.19
28701;BME280;15877;52.344;16.790;2023-02-12T12:50:20;102672.67;;;8.79;80.51
28701;BME280;15877;52.344;16.790;2023-02-12T12:53:22;102672.15;;;8.86;79.95
28701;BME280;15877;52.344;16.790;2023-02-12T12:56:21;102675.73;;;8.94;79.76
28701;BME280;15877;52.344;16.790;2023-02-12T12:59:19;102672.84;;;8.95;79.90
28701;BME280;15877;52.344;16.790;2023-02-12T13:02:11;102657.77;;;8.79;80.32
28701;BME280;15877;52.344;16.790;2023-02-12T13:08:05;102667.25;;;8.95;80.41
28701;BME280;15877;52.344;16.790;2023-02-12T13:10:46;102668.42;;;9.09;80.06
28701;BME280;15877;52.344;16.790;2023-02-12T13:13:26;102662.17;;;9.01;80.70
28701;BME280;15877;52.344;16.790;2023-02-12T13:16:08;102663.09;;;8.96;81.00
28701;BME280;15877;52.344;16.790;2023-02-12T13:18:50;102642.50;;;8.89;81.04
28701;BME280;15877;52.344;16.790;2023-02-12T13:21:36;102655.64;;;9.07;80.84
28701;BME280;15877;52.344;16.790;2023-02-12T13:24:22;102655.48;;;9.04;81.16
28701;BME280;15877;52.344;16.790;2023-02-12T13:26:57;102653.08;;;8.97;81.36
28701;BME280;15877;52.344;16.790;2023-02-12T13:29:36;102650.05;;;9.05;81.45
28701;BME280;15877;52.344;16.790;2023-02-12T13:32:14;102647.59;;;9.08;81.25
28701;BME280;15877;52.344;16.790;2023-02-12T13:34:49;102651.67;;;9.12;81.15
28701;BME280;15877;52.344;16.790;2023-02-12T13:37:30;102653.66;;;9.06;81.05
28701;BME280;15877;52.344;16.790;2023-02-12T13:40:07;102647.50;;;9.09;81.02
28701;BME280;15877;52.344;16.790;2023-02-12T13:42:49;102643.84;;;9.13;80.76
28701;BME280;15877;52.344;16.790;2023-02-12T13:45:40;102638.79;;;9.14;80.76
28701;BME280;15877;52.344;16.790;2023-02-12T13:48:34;102626.42;;;9.03;80.72
28701;BME280;15877;52.344;16.790;2023-02-12T13:51:19;102645.13;;;9.13;80.76
28701;BME280;15877;52.344;16.790;2023-02-12T13:54:03;102643.15;;;9.11;80.72
28701;BME280;15877;52.344;16.790;2023-02-12T13:56:41;102643.91;;;9.08;80.80